Garden Ridge, Texas
Current Conditions -  °F | °C
As of 10:58 PM on Monday 22 Dec 2014 (Local Time) from KRND Reporting Station
Clear Clear  
Wind Chill: 54°   Ceiling: Unl
Heat Index: 54°   Visibility: 10mi
Dew Point: 52°   Wind: 2mph
Humidity: 92%   Direction: 90°E
Pressure: 29.65"   Gusts: NA
Location:  29.6654°N, 98.3191°W
Report Text: KRND 230458Z AUTO 09002KT 10SM CLR 12/11 A2965 RMK AO2 SLP038 T01240112
Loading
Personal Weather Stations






























Interactive Weather Map New forecast layout! Learn more

10-Day Weather Forecast

Advertisements
Track Severe Weather on mobile